createdAt,value
2018-12-04T00:00:27.761Z,3.76
2018-12-04T00:02:56.593Z,3.80
2018-12-04T00:05:25.421Z,3.83
2018-12-04T00:07:54.297Z,3.92
2018-12-04T00:10:23.130Z,3.95
2018-12-04T00:12:52.029Z,4.04
2018-12-04T00:15:20.928Z,4.12
2018-12-04T00:17:50.556Z,4.10
2018-12-04T00:20:19.400Z,4.10
2018-12-04T00:22:48.271Z,4.15
2018-12-04T00:25:21.237Z,4.12
2018-12-04T00:27:52.000Z,4.03
2018-12-04T00:30:32.720Z,4.06
2018-12-04T00:33:02.733Z,4.11
2018-12-04T00:35:32.970Z,4.21
2018-12-04T00:38:03.578Z,4.20
2018-12-04T00:40:37.630Z,4.38
2018-12-04T00:43:07.458Z,4.44
2018-12-04T00:45:36.288Z,4.62
2018-12-04T00:48:05.761Z,4.73
2018-12-04T00:50:34.658Z,4.85
2018-12-04T00:53:05.160Z,4.76
2018-12-04T00:55:42.162Z,4.68
2018-12-04T00:58:11.045Z,4.55
2018-12-04T01:00:40.601Z,4.52
2018-12-04T01:03:09.438Z,4.41
2018-12-04T01:05:38.820Z,4.43
2018-12-04T01:08:07.653Z,4.43
2018-12-04T01:10:36.589Z,4.37
2018-12-04T01:13:05.409Z,4.34
2018-12-04T01:15:35.241Z,4.30
2018-12-04T01:18:04.094Z,4.23
2018-12-04T01:20:33.874Z,4.25
2018-12-04T01:23:02.705Z,4.48
2018-12-04T01:25:31.569Z,4.52
2018-12-04T01:28:00.409Z,4.51
2018-12-04T01:30:29.214Z,4.60
2018-12-04T01:32:58.322Z,4.57
2018-12-04T01:35:27.102Z,4.64
2018-12-04T01:37:55.925Z,4.67
2018-12-04T01:40:24.770Z,4.62
2018-12-04T01:42:53.574Z,4.62
2018-12-04T01:45:22.369Z,4.70
2018-12-04T01:47:51.211Z,4.67
2018-12-04T01:50:20.050Z,4.70
2018-12-04T01:52:50.353Z,4.65
2018-12-04T01:55:19.144Z,4.65
2018-12-04T01:57:47.932Z,4.57
2018-12-04T02:00:16.782Z,4.53
2018-12-04T02:02:45.579Z,4.59
2018-12-04T02:05:14.511Z,4.66
2018-12-04T02:07:43.368Z,4.66
2018-12-04T02:10:12.161Z,4.76
2018-12-04T02:12:41.037Z,4.67
2018-12-04T02:15:10.239Z,4.60
2018-12-04T02:17:39.019Z,4.55
2018-12-04T02:20:07.869Z,4.51
2018-12-04T02:22:36.713Z,4.66
2018-12-04T02:25:05.918Z,4.75
2018-12-04T02:27:34.739Z,4.82
2018-12-04T02:30:04.197Z,4.88
2018-12-04T02:32:33.026Z,4.86
2018-12-04T02:35:01.809Z,4.83
2018-12-04T02:37:30.635Z,4.63
2018-12-04T02:39:59.444Z,4.61
2018-12-04T02:42:28.995Z,4.73
2018-12-04T02:44:59.189Z,4.81
2018-12-04T02:47:33.209Z,4.91
2018-12-04T02:50:07.374Z,4.85
2018-12-04T02:52:38.673Z,4.80
2018-12-04T02:55:07.805Z,4.75
2018-12-04T02:57:43.093Z,4.62
2018-12-04T03:00:13.110Z,4.71
2018-12-04T03:02:41.902Z,4.88
2018-12-04T03:05:10.811Z,5.03
2018-12-04T03:07:42.214Z,5.05
2018-12-04T03:10:13.518Z,4.89
2018-12-04T03:12:44.034Z,4.88
2018-12-04T03:15:12.924Z,5.00
2018-12-04T03:17:41.729Z,5.09
2018-12-04T03:20:12.757Z,4.99
2018-12-04T03:22:41.549Z,4.94
2018-12-04T03:25:14.384Z,4.95
2018-12-04T03:27:46.112Z,5.11
2018-12-04T03:30:14.991Z,5.16
2018-12-04T03:32:43.806Z,5.15
2018-12-04T03:35:14.538Z,5.25
2018-12-04T03:37:44.401Z,5.17
2018-12-04T03:40:14.117Z,5.11
2018-12-04T03:42:44.683Z,5.06
2018-12-04T03:45:13.650Z,4.98
2018-12-04T03:47:42.970Z,4.98
2018-12-04T03:50:14.091Z,5.06
2018-12-04T03:52:46.485Z,5.16
2018-12-04T03:55:15.349Z,5.27
2018-12-04T03:57:44.189Z,5.26
2018-12-04T04:00:24.190Z,5.33
2018-12-04T04:02:56.471Z,5.28
2018-12-04T04:05:25.365Z,5.23
2018-12-04T04:07:54.153Z,5.22
2018-12-04T04:10:23.017Z,5.24
2018-12-04T04:12:55.542Z,5.18
2018-12-04T04:15:28.013Z,5.16
2018-12-04T04:17:58.849Z,5.24
2018-12-04T04:20:27.654Z,5.22
2018-12-04T04:22:56.456Z,5.16
2018-12-04T04:25:26.478Z,5.25
2018-12-04T04:27:56.175Z,5.32
2018-12-04T04:30:26.361Z,5.06
2018-12-04T04:32:55.825Z,5.22
2018-12-04T04:35:24.634Z,5.00
2018-12-04T04:37:53.473Z,4.90
2018-12-04T04:40:22.854Z,4.89
2018-12-04T04:42:57.794Z,4.85
2018-12-04T04:45:27.275Z,4.78
2018-12-04T04:47:56.998Z,4.71
2018-12-04T04:50:25.947Z,4.80
2018-12-04T04:52:57.232Z,4.99
2018-12-04T04:55:27.109Z,4.97
2018-12-04T04:57:58.312Z,5.07
2018-12-04T05:00:28.861Z,5.10
2018-12-04T05:03:01.254Z,5.12
2018-12-04T05:05:37.689Z,5.19
2018-12-04T05:08:07.112Z,5.21
2018-12-04T05:15:33.500Z,5.15
2018-12-04T05:18:03.663Z,5.23
2018-12-04T05:20:32.505Z,5.25
2018-12-04T05:23:02.660Z,5.23
2018-12-04T05:25:31.533Z,5.25
2018-12-04T05:28:00.341Z,5.14
2018-12-04T05:30:29.158Z,5.01
2018-12-04T05:32:59.251Z,5.04
2018-12-04T05:35:28.107Z,4.98
2018-12-04T05:37:58.261Z,4.94
2018-12-04T05:40:27.043Z,4.92
2018-12-04T05:42:55.970Z,4.89
2018-12-04T05:45:25.973Z,4.81
2018-12-04T05:47:54.800Z,4.88
2018-12-04T05:50:23.583Z,4.90
2018-12-04T05:53:03.404Z,5.04
2018-12-04T05:55:33.477Z,4.96
2018-12-04T05:58:02.933Z,4.96
2018-12-04T06:00:33.138Z,5.09
2018-12-04T06:03:02.025Z,5.16
2018-12-04T06:05:31.517Z,5.09
2018-12-04T06:08:03.248Z,5.07
2018-12-04T06:10:32.704Z,5.14
2018-12-04T06:13:03.102Z,5.13
2018-12-04T06:15:31.974Z,5.17
2018-12-04T06:18:00.993Z,5.23
2018-12-04T06:20:29.962Z,5.35
2018-12-04T06:23:02.134Z,5.31
2018-12-04T06:25:31.885Z,5.23
2018-12-04T06:28:00.838Z,5.27
2018-12-04T06:30:29.715Z,5.32
2018-12-04T06:32:58.518Z,5.33
2018-12-04T06:35:29.682Z,5.28
2018-12-04T06:37:58.509Z,5.39
2018-12-04T06:40:27.318Z,5.52
2018-12-04T06:42:56.121Z,5.53
2018-12-04T06:45:24.954Z,5.45
2018-12-04T06:47:53.753Z,5.46
2018-12-04T06:50:22.612Z,5.60
2018-12-04T06:52:52.677Z,5.55
2018-12-04T06:55:21.476Z,5.51
2018-12-04T06:57:58.690Z,5.56
2018-12-04T07:00:27.524Z,5.61
2018-12-04T07:02:56.334Z,5.50
2018-12-04T07:05:25.211Z,5.58
2018-12-04T07:07:54.010Z,5.49
2018-12-04T07:10:22.857Z,5.63
2018-12-04T07:12:53.220Z,5.56
2018-12-04T07:15:28.314Z,5.55
2018-12-04T07:18:01.482Z,5.63
2018-12-04T07:20:31.343Z,5.61
2018-12-04T07:23:00.169Z,5.55
2018-12-04T07:25:28.993Z,5.79
2018-12-04T07:27:58.333Z,5.98
2018-12-04T07:30:28.388Z,6.18
2018-12-04T07:32:57.209Z,6.22
2018-12-04T07:35:26.051Z,6.40
2018-12-04T07:37:54.849Z,6.47
2018-12-04T07:40:23.654Z,6.74
2018-12-04T07:42:52.516Z,6.71
2018-12-04T07:45:21.309Z,6.39
2018-12-04T07:47:50.157Z,6.53
2018-12-04T07:50:18.971Z,6.58
2018-12-04T07:52:47.813Z,6.37
2018-12-04T07:55:16.601Z,6.26
2018-12-04T07:57:45.406Z,6.28
2018-12-04T08:00:16.465Z,6.37
2018-12-04T08:02:45.279Z,6.32
2018-12-04T08:05:14.090Z,6.00
2018-12-04T08:07:42.966Z,6.31
2018-12-04T08:10:11.769Z,6.41
2018-12-04T08:12:40.565Z,6.36
2018-12-04T08:15:09.441Z,6.52
2018-12-04T08:17:38.254Z,6.38
2018-12-04T08:20:09.706Z,6.57
2018-12-04T08:22:38.639Z,6.51
2018-12-04T08:25:07.790Z,6.50
2018-12-04T08:27:40.309Z,6.39
2018-12-04T08:30:09.579Z,6.64
2018-12-04T08:32:39.583Z,6.70
2018-12-04T08:35:10.173Z,6.61
2018-12-04T08:37:39.593Z,6.61
2018-12-04T08:40:11.229Z,6.48
2018-12-04T08:42:40.066Z,6.65
2018-12-04T08:45:10.385Z,6.42
2018-12-04T08:47:40.840Z,6.54
2018-12-04T08:50:09.671Z,6.64
2018-12-04T08:52:38.625Z,6.79
2018-12-04T08:55:07.630Z,6.75
2018-12-04T08:57:36.435Z,6.77
2018-12-04T09:00:06.326Z,6.73
2018-12-04T09:02:36.678Z,7.08
2018-12-04T09:05:06.116Z,7.27
2018-12-04T09:07:35.929Z,7.67
2018-12-04T09:10:05.681Z,7.89
2018-12-04T09:12:34.511Z,7.89
2018-12-04T09:15:03.470Z,7.93
2018-12-04T09:17:32.330Z,7.98
2018-12-04T09:20:01.163Z,7.79
2018-12-04T09:22:30.696Z,7.98
2018-12-04T09:25:00.237Z,8.04
2018-12-04T09:27:29.566Z,8.09
2018-12-04T09:29:58.477Z,7.79
2018-12-04T09:32:28.706Z,7.90
2018-12-04T09:34:57.665Z,7.71
2018-12-04T09:37:26.453Z,7.67
2018-12-04T09:39:55.327Z,7.78
2018-12-04T09:42:24.249Z,7.65
2018-12-04T09:44:53.090Z,7.02
2018-12-04T09:47:21.918Z,7.21
2018-12-04T09:49:54.405Z,7.51
2018-12-04T09:52:24.698Z,7.46
2018-12-04T09:54:53.509Z,7.65
2018-12-04T09:57:22.425Z,7.73
2018-12-04T09:59:51.239Z,7.84
2018-12-04T10:02:20.078Z,7.85
2018-12-04T10:04:48.937Z,8.06
2018-12-04T10:07:17.769Z,8.27
2018-12-04T10:09:46.586Z,8.33
2018-12-04T10:12:16.702Z,8.48
2018-12-04T10:19:04.869Z,8.47
2018-12-04T10:21:33.670Z,8.52
2018-12-04T10:24:02.493Z,8.63
2018-12-04T10:26:32.573Z,8.63
2018-12-04T10:29:01.418Z,8.41
2018-12-04T10:31:31.462Z,8.17
2018-12-04T10:34:00.321Z,8.03
2018-12-04T10:36:29.126Z,7.88
2018-12-04T10:38:58.751Z,7.79
2018-12-04T10:41:27.695Z,7.69
2018-12-04T10:43:56.650Z,7.78
2018-12-04T10:46:25.505Z,7.73
2018-12-04T10:48:54.333Z,7.98
2018-12-04T10:51:23.153Z,7.89
2018-12-04T10:53:51.999Z,8.07
2018-12-04T10:56:20.803Z,8.12
2018-12-04T10:58:49.923Z,8.20
2018-12-04T11:01:27.641Z,8.18
2018-12-04T11:03:56.440Z,8.20
2018-12-04T11:06:25.370Z,8.22
2018-12-04T11:08:54.252Z,8.35
2018-12-04T11:11:23.037Z,8.42
2018-12-04T11:13:51.818Z,8.27
2018-12-04T11:16:20.650Z,8.26
2018-12-04T11:18:49.430Z,8.30
2018-12-04T11:21:18.221Z,8.22
2018-12-04T11:23:48.245Z,8.13
2018-12-04T11:26:17.049Z,8.04
2018-12-04T11:28:45.829Z,8.15
2018-12-04T11:31:14.731Z,8.21
2018-12-04T11:33:44.011Z,8.28
2018-12-04T11:36:12.822Z,8.24
2018-12-04T11:38:43.037Z,8.28
2018-12-04T11:41:11.862Z,8.33
2018-12-04T11:43:40.714Z,8.32
2018-12-04T11:46:09.515Z,8.31
2018-12-04T11:48:38.301Z,8.40
2018-12-04T11:51:07.158Z,8.36
2018-12-04T11:53:35.972Z,8.42
2018-12-04T11:56:04.772Z,8.55
2018-12-04T11:58:33.758Z,8.66
2018-12-04T12:21:18.375Z,8.95
2018-12-04T12:23:47.219Z,8.75
2018-12-04T12:26:16.579Z,8.64
2018-12-04T12:28:45.469Z,8.42
2018-12-04T12:31:14.289Z,8.48
2018-12-04T12:33:43.145Z,8.32
2018-12-04T12:36:12.030Z,8.30
2018-12-04T12:41:23.946Z,8.24
2018-12-04T12:43:52.916Z,8.33
2018-12-04T12:46:22.616Z,8.34
2018-12-04T12:48:51.518Z,8.20
2018-12-04T12:51:20.360Z,8.00
2018-12-04T12:53:49.241Z,7.94
2018-12-04T12:56:18.140Z,7.63
2018-12-04T12:58:46.998Z,7.46
2018-12-04T13:01:15.856Z,7.47
2018-12-04T13:03:44.694Z,7.62
2018-12-04T13:06:13.665Z,7.62
2018-12-04T13:08:42.516Z,7.59
2018-12-04T13:11:12.683Z,7.74
2018-12-04T13:13:41.571Z,7.80
2018-12-04T13:16:10.466Z,7.73
2018-12-04T13:18:39.297Z,7.68
2018-12-04T13:21:08.114Z,7.71
2018-12-04T13:23:36.984Z,7.79
2018-12-04T13:26:05.870Z,7.80
2018-12-04T13:28:34.723Z,7.82
2018-12-04T13:31:03.624Z,7.74
2018-12-04T13:33:32.593Z,7.65
2018-12-04T13:36:02.434Z,7.69
2018-12-04T13:38:31.272Z,7.66
2018-12-04T13:41:00.076Z,7.75
2018-12-04T13:43:29.413Z,7.79
2018-12-04T13:45:58.228Z,7.85
2018-12-04T13:48:27.030Z,7.97
2018-12-04T13:50:55.914Z,8.00
2018-12-04T13:53:24.745Z,8.04
2018-12-04T13:55:54.917Z,8.07
2018-12-04T13:58:23.768Z,8.03
2018-12-04T14:00:52.637Z,8.15
2018-12-04T14:03:21.509Z,8.30
2018-12-04T14:05:50.329Z,8.13
2018-12-04T14:08:19.217Z,8.24
2018-12-04T14:10:48.128Z,8.29
2018-12-04T14:13:16.977Z,8.23
2018-12-04T14:15:45.780Z,8.06
2018-12-04T14:18:15.198Z,8.04
2018-12-04T14:20:44.051Z,7.91
2018-12-04T14:23:12.901Z,7.93
2018-12-04T14:25:41.941Z,7.87
2018-12-04T14:28:10.772Z,7.82
2018-12-04T14:30:40.646Z,7.75
2018-12-04T14:33:09.467Z,7.68
2018-12-04T14:35:38.321Z,7.70
2018-12-04T14:38:07.252Z,7.78
2018-12-04T14:40:36.206Z,7.81
2018-12-04T14:43:05.178Z,7.84
2018-12-04T14:45:35.320Z,7.75
2018-12-04T14:48:04.209Z,7.74
2018-12-04T14:50:33.229Z,7.70
2018-12-04T14:53:02.265Z,7.53
2018-12-04T14:55:31.209Z,7.48
2018-12-04T14:58:01.469Z,7.58
2018-12-04T15:00:30.360Z,7.64
2018-12-04T15:02:59.170Z,7.68
2018-12-04T15:05:28.130Z,7.70
2018-12-04T15:07:57.018Z,7.79
2018-12-04T15:10:25.911Z,7.83
2018-12-04T15:12:54.882Z,7.91
2018-12-04T15:15:24.795Z,7.87
2018-12-04T15:17:53.855Z,7.85
2018-12-04T15:20:22.824Z,7.81
2018-12-04T15:22:51.673Z,7.89
2018-12-04T15:25:20.538Z,7.99
2018-12-04T15:27:50.892Z,8.05
2018-12-04T15:30:19.766Z,8.03
2018-12-04T15:32:48.701Z,7.97
2018-12-04T15:35:17.571Z,8.06
2018-12-04T15:37:46.455Z,8.07
2018-12-04T15:40:15.407Z,7.98
2018-12-04T15:42:45.546Z,7.95
2018-12-04T15:45:14.512Z,7.87
2018-12-04T15:47:43.371Z,7.95
2018-12-04T15:50:12.263Z,7.90
2018-12-04T15:52:41.136Z,7.70
2018-12-04T15:55:10.076Z,7.74
2018-12-04T15:57:40.265Z,7.90
2018-12-04T16:00:10.977Z,7.93
2018-12-04T16:02:39.870Z,7.98
2018-12-04T16:05:10.108Z,8.10
2018-12-04T16:07:39.292Z,7.98
2018-12-04T16:10:11.259Z,7.97
2018-12-04T16:12:40.115Z,7.95
2018-12-04T16:15:09.421Z,7.64
2018-12-04T16:17:38.234Z,7.42
2018-12-04T16:20:08.383Z,7.48
2018-12-04T16:22:37.284Z,7.63
2018-12-04T16:25:07.833Z,7.67
2018-12-04T16:27:36.769Z,7.64
2018-12-04T16:30:09.789Z,7.42
2018-12-04T16:32:38.671Z,7.27
2018-12-04T16:37:48.826Z,7.27
2018-12-04T16:40:17.680Z,7.17
2018-12-04T16:42:46.533Z,7.11
2018-12-04T16:45:16.608Z,7.10
2018-12-04T16:47:45.449Z,7.12
2018-12-04T16:50:14.293Z,7.08
2018-12-04T16:52:44.460Z,7.08
2018-12-04T16:55:13.357Z,7.23
2018-12-04T16:57:42.198Z,7.26
2018-12-04T17:00:13.308Z,7.21
2018-12-04T17:02:42.152Z,7.23
2018-12-04T17:05:14.048Z,7.31
2018-12-04T17:07:42.904Z,7.33
2018-12-04T17:10:12.033Z,7.24
2018-12-04T17:12:40.969Z,7.18
2018-12-04T17:15:09.979Z,7.23
2018-12-04T17:17:40.060Z,7.28
2018-12-04T17:20:10.386Z,7.41
2018-12-04T17:22:39.225Z,7.48
2018-12-04T17:25:08.108Z,7.43
2018-12-04T17:27:38.298Z,7.47
2018-12-04T17:30:09.630Z,7.53
2018-12-04T17:32:39.975Z,7.53
2018-12-04T17:35:08.829Z,7.61
2018-12-04T17:37:37.667Z,7.58
2018-12-04T17:40:07.461Z,7.66
2018-12-04T17:42:36.286Z,7.58
2018-12-04T17:45:07.349Z,7.61
2018-12-04T17:47:37.575Z,7.66
2018-12-04T17:50:08.121Z,7.64
2018-12-04T17:52:37.011Z,7.60
2018-12-04T17:55:06.370Z,7.46
2018-12-04T17:57:36.677Z,7.30
2018-12-04T18:00:06.302Z,7.38
2018-12-04T18:02:35.101Z,7.44
2018-12-04T18:05:04.138Z,7.53
2018-12-04T18:07:32.978Z,7.44
2018-12-04T18:10:01.851Z,7.37
2018-12-04T18:12:30.728Z,7.33
2018-12-04T18:14:59.616Z,7.27
2018-12-04T18:17:30.070Z,7.25
2018-12-04T18:19:58.914Z,7.23
2018-12-04T18:22:27.789Z,7.26
2018-12-04T18:24:57.914Z,7.34
2018-12-04T18:27:26.738Z,7.42
2018-12-04T18:29:55.939Z,7.42
2018-12-04T18:32:25.318Z,7.42
2018-12-04T18:34:54.145Z,7.47
2018-12-04T18:37:25.294Z,7.44
2018-12-04T18:39:54.286Z,7.48
2018-12-04T18:42:23.152Z,7.45
2018-12-04T18:44:53.621Z,7.44
2018-12-04T18:47:22.515Z,7.47
2018-12-04T18:49:51.430Z,7.48
2018-12-04T18:52:20.359Z,7.45
2018-12-04T18:54:49.217Z,7.34
2018-12-04T18:57:19.537Z,7.22
2018-12-04T18:59:48.444Z,7.22
2018-12-04T19:02:17.351Z,7.16
2018-12-04T19:04:46.375Z,7.17
2018-12-04T19:07:15.274Z,7.17
2018-12-04T19:09:44.127Z,7.23
2018-12-04T19:12:13.101Z,7.26
2018-12-04T19:14:42.009Z,7.36
2018-12-04T19:17:10.849Z,7.42
2018-12-04T19:19:39.692Z,7.44
2018-12-04T19:22:10.179Z,7.46
2018-12-04T19:24:39.013Z,7.54
2018-12-04T19:27:08.778Z,7.62
2018-12-04T19:29:37.853Z,7.62
2018-12-04T19:32:06.711Z,7.69
2018-12-04T19:34:35.694Z,7.82
2018-12-04T19:37:04.568Z,7.80
2018-12-04T19:39:34.902Z,7.84
2018-12-04T19:42:03.953Z,7.99
2018-12-04T19:44:32.827Z,8.11
2018-12-04T19:47:01.697Z,8.15
2018-12-04T19:49:30.497Z,8.20
2018-12-04T19:51:59.410Z,8.16
2018-12-04T19:54:28.223Z,8.12
2018-12-04T19:56:57.055Z,8.07
2018-12-04T19:59:25.950Z,8.05
2018-12-04T20:01:54.761Z,8.07
2018-12-04T20:04:23.575Z,7.99
2018-12-04T20:06:54.049Z,7.93
2018-12-04T20:09:22.882Z,7.66
2018-12-04T20:11:52.209Z,7.75
2018-12-04T20:14:22.562Z,7.79
2018-12-04T20:16:51.390Z,7.73
2018-12-04T20:19:20.483Z,7.79
2018-12-04T20:21:49.343Z,7.79
2018-12-04T20:24:18.221Z,7.79
2018-12-04T20:26:47.021Z,7.82
2018-12-04T20:29:15.864Z,7.81
2018-12-04T20:31:44.733Z,7.76
2018-12-04T20:34:13.562Z,7.79
2018-12-04T20:36:42.397Z,7.83
2018-12-04T20:39:11.283Z,7.71
2018-12-04T20:41:40.131Z,7.83
2018-12-04T20:44:08.934Z,7.86
2018-12-04T20:46:37.815Z,7.91
2018-12-04T20:49:06.666Z,7.91
2018-12-04T20:51:35.494Z,7.96
2018-12-04T20:54:04.597Z,7.88
2018-12-04T20:56:33.415Z,7.93
2018-12-04T20:59:02.506Z,7.86
2018-12-04T21:01:31.542Z,7.67
2018-12-04T21:04:00.370Z,7.72
2018-12-04T21:06:29.230Z,7.49
2018-12-04T21:08:58.178Z,7.44
2018-12-04T21:11:27.024Z,7.31
2018-12-04T21:13:55.951Z,7.17
2018-12-04T21:16:24.831Z,7.13
2018-12-04T21:18:53.686Z,7.32
2018-12-04T21:21:22.523Z,7.33
2018-12-04T21:23:51.381Z,7.35
2018-12-04T21:26:20.324Z,7.44
2018-12-04T21:28:54.243Z,7.46
2018-12-04T21:31:28.101Z,7.46
2018-12-04T21:34:03.301Z,7.59
2018-12-04T21:36:37.331Z,7.46
2018-12-04T21:39:13.905Z,7.40
2018-12-04T21:41:47.825Z,7.29
2018-12-04T21:44:21.773Z,7.20
2018-12-04T21:46:55.633Z,7.12
2018-12-04T21:49:29.857Z,7.11
2018-12-04T21:51:59.977Z,7.09
2018-12-04T21:54:28.817Z,7.26
2018-12-04T21:56:57.613Z,7.31
2018-12-04T21:59:26.558Z,7.49
2018-12-04T22:01:55.388Z,7.48
2018-12-04T22:04:24.229Z,7.46
2018-12-04T22:06:53.089Z,7.40
2018-12-04T22:09:21.912Z,7.29
2018-12-04T22:11:50.770Z,7.22
2018-12-04T22:14:19.654Z,7.20
2018-12-04T22:16:48.483Z,7.22
2018-12-04T22:19:17.346Z,7.26
2018-12-04T22:21:46.677Z,7.33
2018-12-04T22:24:15.509Z,7.37
2018-12-04T22:26:44.321Z,7.46
2018-12-04T22:29:13.195Z,7.57
2018-12-04T22:31:42.015Z,7.54
2018-12-04T22:34:10.851Z,7.63
2018-12-04T22:36:40.307Z,7.79
2018-12-04T22:39:10.358Z,7.73
2018-12-04T22:41:39.215Z,7.69
2018-12-04T22:44:08.097Z,7.72
2018-12-04T22:46:37.167Z,7.73
2018-12-04T22:49:06.394Z,7.71
2018-12-04T22:51:36.703Z,7.79
2018-12-04T22:54:05.717Z,7.78
2018-12-04T22:56:34.565Z,7.78
2018-12-04T22:59:03.408Z,7.76
2018-12-04T23:01:41.382Z,7.78
2018-12-04T23:04:10.392Z,7.83
2018-12-04T23:06:39.239Z,7.89
2018-12-04T23:09:10.969Z,7.93
2018-12-04T23:11:40.541Z,7.91
2018-12-04T23:14:09.368Z,7.85
2018-12-04T23:16:38.350Z,7.87
2018-12-04T23:19:07.189Z,7.86
2018-12-04T23:21:36.033Z,8.03
2018-12-04T23:24:04.941Z,8.02
2018-12-04T23:26:33.773Z,7.95
2018-12-04T23:29:02.620Z,8.04
2018-12-04T23:31:31.936Z,8.02
2018-12-04T23:34:00.767Z,8.03
2018-12-04T23:36:29.584Z,7.97
2018-12-04T23:38:58.481Z,8.17
2018-12-04T23:41:27.304Z,8.10
2018-12-04T23:43:56.150Z,8.20
2018-12-04T23:46:25.033Z,8.20
2018-12-04T23:48:53.889Z,8.18
2018-12-04T23:51:22.752Z,8.23
2018-12-04T23:53:51.619Z,8.21
2018-12-04T23:56:20.477Z,8.21
2018-12-04T23:58:49.424Z,8.15
